Time;durP1;ratioP1;P1;durP2;ratioP2;P2;SDS_P1;SDS_P2;PMS_P1;PMS_P2;Temp;Humidity;BMP_temperature;BMP_pressure;BME280_temperature;BME280_humidity;BME280_pressure;Samples;Min_cycle;Max_cycle;Signal;HPM_P1;HPM_P2
2023/08/08 00:01:08;;;;;;;5.10;1.20;;;;;;;14.80;82.83;100434.97;5056823;28;20517;-69
2023/08/08 00:03:35;;;;;;;4.80;0.70;;;;;;;14.85;82.19;100437.50;5056679;28;20529;-69
2023/08/08 00:06:01;;;;;;;5.37;1.10;;;;;;;14.80;82.73;100432.25;5056724;28;20473;-69
2023/08/08 00:08:28;;;;;;;4.97;0.93;;;;;;;14.81;83.16;100430.31;5056170;28;20529;-68
2023/08/08 00:10:56;;;;;;;8.43;1.70;;;;;;;14.74;83.33;100435.50;5056120;28;20488;-69
2023/08/08 00:13:23;;;;;;;4.80;0.90;;;;;;;14.68;84.03;100445.00;5056519;28;20454;-69
2023/08/08 00:15:49;;;;;;;6.30;1.10;;;;;;;14.66;84.01;100431.72;5056105;28;20486;-69
2023/08/08 00:18:16;;;;;;;5.20;1.10;;;;;;;14.68;83.70;100448.53;5056578;28;20484;-69
2023/08/08 00:20:42;;;;;;;5.67;1.47;;;;;;;14.67;83.84;100441.47;5056142;28;20505;-69
2023/08/08 00:23:09;;;;;;;5.30;1.10;;;;;;;14.66;84.48;100444.56;5056099;28;20442;-69
2023/08/08 00:25:36;;;;;;;5.37;1.33;;;;;;;14.65;84.02;100449.19;5056222;28;20557;-69
2023/08/08 00:28:05;;;;;;;5.87;1.13;;;;;;;14.63;84.34;100440.56;5056177;28;20469;-70
2023/08/08 00:30:31;;;;;;;6.83;1.27;;;;;;;14.59;84.21;100445.06;5056151;28;20521;-69
2023/08/08 00:32:58;;;;;;;5.50;1.17;;;;;;;14.55;84.01;100446.84;5055734;28;20430;-69
2023/08/08 00:35:25;;;;;;;5.43;1.17;;;;;;;14.56;84.13;100446.50;5055656;28;20472;-69
2023/08/08 00:37:51;;;;;;;5.10;1.20;;;;;;;14.56;84.04;100443.78;5055967;28;20482;-69
2023/08/08 00:40:18;;;;;;;6.63;1.33;;;;;;;14.55;84.19;100444.13;5056276;28;20434;-69
2023/08/08 00:42:44;;;;;;;9.90;1.50;;;;;;;14.52;84.29;100452.97;5055558;28;20445;-69
2023/08/08 00:45:12;;;;;;;5.40;1.00;;;;;;;14.49;84.32;100461.81;5055473;28;21021;-69
2023/08/08 00:47:39;;;;;;;5.10;1.23;;;;;;;14.50;83.58;100455.22;5055669;28;20430;-69
2023/08/08 00:50:07;;;;;;;7.90;1.10;;;;;;;14.45;84.31;100456.19;5055773;28;20517;-69
2023/08/08 00:52:34;;;;;;;5.53;1.27;;;;;;;14.43;84.58;100463.09;5055626;28;20443;-69
2023/08/08 00:55:01;;;;;;;5.93;1.40;;;;;;;14.35;85.46;100460.09;5055600;28;20458;-69
2023/08/08 00:57:28;;;;;;;5.70;1.13;;;;;;;14.37;83.89;100455.09;5055534;28;20624;-68
2023/08/08 00:59:54;;;;;;;5.00;0.90;;;;;;;14.36;84.16;100461.69;5055800;28;20466;-68
2023/08/08 01:02:22;;;;;;;5.00;1.03;;;;;;;14.35;84.18;100465.56;5055501;28;20926;-69
2023/08/08 01:04:49;;;;;;;5.27;0.93;;;;;;;14.32;84.17;100455.28;5055469;28;20438;-69
2023/08/08 01:07:28;;;;;;;5.30;0.90;;;;;;;14.36;83.06;100453.50;5055877;28;20536;-69
2023/08/08 01:10:04;;;;;;;6.00;1.10;;;;;;;14.27;84.70;100444.59;5055530;28;20509;-69
2023/08/08 01:12:31;;;;;;;5.97;1.30;;;;;;;14.25;83.26;100449.56;5055275;28;21004;-69
2023/08/08 01:14:59;;;;;;;7.03;1.17;;;;;;;14.28;82.81;100448.13;5055533;28;20464;-69
2023/08/08 01:17:27;;;;;;;4.97;1.00;;;;;;;14.27;83.68;100443.81;5055133;28;20444;-69
2023/08/08 01:19:54;;;;;;;5.93;0.90;;;;;;;14.20;83.18;100449.75;5055328;28;20537;-69
2023/08/08 01:22:26;;;;;;;5.00;0.80;;;;;;;14.16;83.68;100448.81;5054947;28;20486;-69
2023/08/08 01:24:55;;;;;;;5.10;0.97;;;;;;;14.12;83.36;100445.13;5054633;28;20986;-69
2023/08/08 01:27:22;;;;;;;4.90;0.80;;;;;;;14.11;83.28;100454.44;5054783;28;20533;-69
2023/08/08 01:29:48;;;;;;;5.77;1.03;;;;;;;14.12;82.59;100448.69;5054574;28;21046;-69
2023/08/08 01:32:15;;;;;;;6.03;1.37;;;;;;;14.12;82.48;100453.31;5054849;28;20434;-69
2023/08/08 01:34:42;;;;;;;5.10;0.90;;;;;;;14.13;82.65;100436.66;5054053;28;20525;-69
2023/08/08 01:37:15;;;;;;;4.90;0.93;;;;;;;14.11;83.04;100446.28;5054809;28;20534;-69
2023/08/08 01:39:44;;;;;;;4.80;0.87;;;;;;;14.11;82.83;100436.16;5055021;28;20470;-69
2023/08/08 01:42:15;;;;;;;5.37;0.90;;;;;;;14.16;82.89;100443.34;5054837;28;20847;-69
2023/08/08 01:44:42;;;;;;;6.50;0.90;;;;;;;14.18;82.65;100445.78;5054495;28;20509;-69
2023/08/08 01:47:09;;;;;;;5.00;1.07;;;;;;;14.21;81.71;100445.91;5054541;28;20456;-69
2023/08/08 01:49:36;;;;;;;4.63;1.00;;;;;;;14.22;80.74;100441.28;5054818;28;20434;-69
2023/08/08 01:52:03;;;;;;;4.60;0.80;;;;;;;14.24;80.74;100439.00;5054544;28;20470;-69
2023/08/08 01:54:29;;;;;;;10.90;1.27;;;;;;;14.26;81.81;100436.75;5054448;28;20529;-69
2023/08/08 01:56:56;;;;;;;5.53;1.23;;;;;;;14.28;80.61;100429.84;5054394;28;20442;-69
2023/08/08 01:59:24;;;;;;;12.20;1.40;;;;;;;14.24;79.95;100417.19;5054039;28;20589;-69
2023/08/08 02:01:51;;;;;;;6.20;1.10;;;;;;;14.29;80.22;100425.19;5054277;28;20466;-69
2023/08/08 02:04:17;;;;;;;4.50;0.80;;;;;;;14.27;79.65;100411.91;5054629;28;20466;-69
2023/08/08 02:06:44;;;;;;;4.50;0.90;;;;;;;14.24;80.25;100418.00;5054325;28;20501;-69
2023/08/08 02:09:11;;;;;;;8.20;1.13;;;;;;;14.20;79.59;100416.25;5054238;28;20426;-69
2023/08/08 02:11:37;;;;;;;5.53;1.20;;;;;;;14.16;81.52;100420.78;5068964;22;20529;-69
2023/08/08 02:14:04;;;;;;;4.80;0.93;;;;;;;14.22;80.24;100414.03;5054062;28;20526;-70
2023/08/08 02:16:32;;;;;;;6.70;1.00;;;;;;;14.21;80.46;100413.22;5053826;28;20545;-69
2023/08/08 02:18:59;;;;;;;6.40;1.20;;;;;;;14.18;81.45;100413.88;5053906;28;20582;-70
2023/08/08 02:21:25;;;;;;;4.47;0.63;;;;;;;14.20;80.25;100411.59;5053573;28;20484;-69
2023/08/08 02:23:52;;;;;;;4.90;0.97;;;;;;;14.21;80.49;100399.59;5053915;28;20442;-69
2023/08/08 02:26:19;;;;;;;5.53;1.17;;;;;;;14.18;80.97;100397.53;5054459;28;20494;-69
2023/08/08 02:28:45;;;;;;;4.80;0.97;;;;;;;14.18;81.82;100404.91;5053892;28;20472;-70
2023/08/08 02:31:12;;;;;;;4.60;0.87;;;;;;;14.15;81.75;100414.53;5053434;28;20436;-69
2023/08/08 02:33:40;;;;;;;4.60;0.83;;;;;;;14.03;82.46;100417.97;5053739;28;20525;-69
2023/08/08 02:36:06;;;;;;;5.27;1.17;;;;;;;13.95;83.23;100413.38;5053297;28;20488;-70
2023/08/08 02:38:33;;;;;;;5.10;1.30;;;;;;;13.91;83.88;100414.34;5053602;28;20486;-69
2023/08/08 02:41:00;;;;;;;5.30;1.03;;;;;;;13.89;84.70;100398.31;5053570;28;20470;-70
2023/08/08 02:43:26;;;;;;;4.50;0.60;;;;;;;13.81;85.45;100410.03;5053248;28;21017;-70
2023/08/08 02:45:53;;;;;;;4.80;0.90;;;;;;;13.80;86.36;100403.81;5053531;28;20462;-70
2023/08/08 02:48:19;;;;;;;5.27;1.27;;;;;;;13.79;85.70;100413.09;5053430;28;20470;-70
2023/08/08 02:50:47;;;;;;;6.70;1.17;;;;;;;13.76;86.57;100402.84;5053543;28;20525;-69
2023/08/08 02:53:14;;;;;;;4.90;0.93;;;;;;;13.76;86.59;100402.84;5053146;28;20934;-70
2023/08/08 02:55:41;;;;;;;6.00;1.13;;;;;;;13.73;87.14;100394.56;5053484;28;20490;-69
2023/08/08 02:58:07;;;;;;;6.00;1.23;;;;;;;13.75;87.28;100400.47;5053060;28;20495;-69
2023/08/08 03:00:34;;;;;;;10.20;1.27;;;;;;;13.71;87.96;100397.59;5053132;28;20876;-69
2023/08/08 03:03:01;;;;;;;4.80;0.93;;;;;;;13.66;89.05;100403.22;5053269;28;20513;-69
2023/08/08 03:05:27;;;;;;;5.00;0.90;;;;;;;13.67;88.92;100395.84;5053614;28;20544;-69
2023/08/08 03:07:55;;;;;;;5.63;1.17;;;;;;;13.68;89.31;100402.88;5053294;28;20445;-69
2023/08/08 03:10:22;;;;;;;7.20;1.50;;;;;;;13.67;89.97;100398.56;5053108;28;20437;-69
2023/08/08 03:12:48;;;;;;;5.53;0.93;;;;;;;13.69;89.65;100401.78;5052985;28;20513;-69
2023/08/08 03:15:15;;;;;;;5.53;1.17;;;;;;;13.71;90.09;100405.75;5052868;28;20532;-72
2023/08/08 03:17:42;;;;;;;9.40;1.97;;;;;;;13.65;90.17;100396.19;5053174;28;20446;-69
2023/08/08 03:20:10;;;;;;;5.80;1.20;;;;;;;13.65;90.96;100389.94;5053205;28;21104;-69
2023/08/08 03:22:37;;;;;;;5.63;1.07;;;;;;;13.60;91.62;100388.22;5052877;28;20442;-69
2023/08/08 03:25:06;;;;;;;6.10;1.33;;;;;;;13.59;91.39;100394.75;5053047;28;20890;-69
2023/08/08 03:27:32;;;;;;;6.10;1.37;;;;;;;13.57;91.51;100399.72;5053268;28;20442;-69
2023/08/08 03:29:59;;;;;;;6.40;1.30;;;;;;;13.61;92.97;100406.13;5053035;28;20517;-69
2023/08/08 03:32:26;;;;;;;5.20;1.30;;;;;;;13.64;91.93;100410.94;5053473;28;20442;-69
2023/08/08 03:34:52;;;;;;;6.30;1.37;;;;;;;13.59;91.85;100411.09;5052987;28;20490;-69
2023/08/08 03:37:19;;;;;;;5.53;1.30;;;;;;;13.60;92.16;100401.81;5052993;28;20525;-69
2023/08/08 03:39:46;;;;;;;5.47;1.10;;;;;;;13.62;92.60;100399.56;5052683;28;20482;-69
2023/08/08 03:42:14;;;;;;;4.97;0.93;;;;;;;13.66;91.98;100395.06;5053366;28;20438;-69
2023/08/08 03:44:40;;;;;;;5.90;1.30;;;;;;;13.63;92.13;100399.25;5053310;28;20499;-69
2023/08/08 03:47:07;;;;;;;5.63;1.07;;;;;;;13.63;92.12;100392.97;5052922;28;20438;-69
2023/08/08 03:49:34;;;;;;;6.47;1.50;;;;;;;13.65;92.19;100398.13;5053223;28;20442;-69
2023/08/08 03:52:01;;;;;;;6.13;1.10;;;;;;;13.65;92.20;100398.91;5053232;28;20474;-69
2023/08/08 03:54:27;;;;;;;5.00;1.20;;;;;;;13.66;92.21;100403.22;5052615;28;20933;-69
2023/08/08 03:56:54;;;;;;;15.70;2.17;;;;;;;13.71;92.11;100411.22;5052816;28;20485;-69
2023/08/08 03:59:22;;;;;;;5.10;1.27;;;;;;;13.72;92.40;100404.63;5056444;28;20481;-70
2023/08/08 04:01:48;;;;;;;5.57;1.40;;;;;;;13.72;92.64;100407.34;5056592;28;20524;-69
2023/08/08 04:04:15;;;;;;;5.13;1.17;;;;;;;13.79;92.79;100402.22;5056097;28;20450;-69
2023/08/08 04:06:42;;;;;;;7.43;1.33;;;;;;;13.80;92.35;100403.81;5055962;28;21008;-69
2023/08/08 04:09:09;;;;;;;6.57;1.97;;;;;;;13.85;91.98;100411.00;5056438;28;20470;-69
2023/08/08 04:11:36;;;;;;;6.00;1.30;;;;;;;13.85;92.20;100408.25;5055862;28;20944;-69
2023/08/08 04:14:02;;;;;;;6.03;1.30;;;;;;;13.85;92.53;100406.34;5055920;28;20952;-69
2023/08/08 04:16:30;;;;;;;5.73;1.23;;;;;;;13.85;92.33;100398.16;5056500;28;20516;-69
2023/08/08 04:18:59;;;;;;;5.27;0.90;;;;;;;13.83;93.18;100396.91;5056429;28;20584;-69
2023/08/08 04:21:27;;;;;;;5.73;1.10;;;;;;;13.76;94.25;100400.13;5056128;28;20446;-69
2023/08/08 04:23:54;;;;;;;5.87;1.20;;;;;;;13.80;93.84;100403.81;5056055;28;20441;-70
2023/08/08 04:26:20;;;;;;;8.80;1.13;;;;;;;13.79;94.39;100406.84;5056295;28;20872;-69
2023/08/08 04:28:47;;;;;;;4.97;1.20;;;;;;;13.82;94.62;100412.44;5055970;28;20852;-69
2023/08/08 04:31:14;;;;;;;6.83;1.00;;;;;;;13.81;93.94;100407.31;5055933;28;20521;-70
2023/08/08 04:33:42;;;;;;;5.53;1.20;;;;;;;13.88;94.57;100411.13;5056301;28;20434;-69
2023/08/08 04:36:08;;;;;;;7.53;1.67;;;;;;;13.95;93.11;100407.91;5055424;28;20970;-69
2023/08/08 04:38:35;;;;;;;5.53;1.37;;;;;;;13.99;93.15;100402.59;5056048;28;20822;-70
2023/08/08 04:41:01;;;;;;;5.63;1.23;;;;;;;14.01;93.46;100403.88;5055673;28;20439;-70
2023/08/08 04:43:28;;;;;;;5.47;1.13;;;;;;;14.05;94.13;100404.00;5055766;28;20960;-70
2023/08/08 04:45:55;;;;;;;5.10;1.20;;;;;;;14.10;92.85;100403.81;5055813;28;20468;-70
2023/08/08 04:48:21;;;;;;;8.50;1.37;;;;;;;14.03;93.79;100406.25;5055748;28;20918;-70
2023/08/08 04:50:49;;;;;;;5.00;1.17;;;;;;;14.04;94.35;100405.94;5055351;28;20484;-70
2023/08/08 04:53:16;;;;;;;5.50;1.17;;;;;;;14.08;93.64;100406.09;5055470;28;20445;-70
2023/08/08 04:55:43;;;;;;;7.57;1.43;;;;;;;14.09;92.88;100399.50;5055215;28;20985;-70
2023/08/08 04:58:09;;;;;;;5.70;1.20;;;;;;;14.05;93.75;100410.25;5055499;28;20533;-71
2023/08/08 05:00:36;;;;;;;5.40;1.03;;;;;;;14.09;94.20;100400.31;5055623;28;20488;-70
2023/08/08 05:03:03;;;;;;;4.80;1.03;;;;;;;14.14;94.26;100404.75;5055307;28;20438;-70
2023/08/08 05:05:29;;;;;;;5.57;1.30;;;;;;;14.17;93.45;100395.94;5055937;28;20512;-70
2023/08/08 05:07:57;;;;;;;6.20;1.37;;;;;;;14.17;93.44;100401.38;5055193;28;20526;-70
2023/08/08 05:10:24;;;;;;;5.50;1.20;;;;;;;14.19;92.76;100396.41;5053864;28;20557;-70
2023/08/08 05:12:50;;;;;;;5.10;1.10;;;;;;;14.13;93.75;100398.53;5055172;28;20505;-71
2023/08/08 05:15:17;;;;;;;5.20;1.23;;;;;;;14.21;93.81;100390.59;5055150;28;20512;-71
2023/08/08 05:17:44;;;;;;;7.10;1.33;;;;;;;14.24;93.78;100396.19;5055212;28;20936;-71
2023/08/08 05:20:12;;;;;;;5.23;1.13;;;;;;;14.27;94.12;100392.81;5054982;28;20485;-72
2023/08/08 05:22:38;;;;;;;5.67;1.20;;;;;;;14.29;93.95;100387.84;5054927;28;20537;-71
2023/08/08 05:25:07;;;;;;;5.37;1.00;;;;;;;14.34;94.38;100395.00;5054524;28;20494;-70
2023/08/08 05:27:34;;;;;;;5.50;1.40;;;;;;;14.43;93.34;100397.69;5054925;28;20474;-70
2023/08/08 05:30:01;;;;;;;5.97;1.57;;;;;;;14.57;92.26;100388.16;5055166;28;20481;-70
2023/08/08 05:32:28;;;;;;;5.13;1.03;;;;;;;14.67;91.69;100397.88;5055067;28;20438;-70
2023/08/08 05:34:55;;;;;;;6.00;1.50;;;;;;;14.80;91.23;100387.81;5054647;28;20460;-70
2023/08/08 05:37:21;;;;;;;5.10;1.37;;;;;;;14.90;90.80;100392.84;5054587;28;20472;-70
2023/08/08 05:39:48;;;;;;;6.27;1.47;;;;;;;15.03;90.65;100391.78;5054236;28;20482;-70
2023/08/08 05:42:16;;;;;;;4.83;0.83;;;;;;;15.11;90.29;100390.09;5054950;28;20469;-70
2023/08/08 05:44:43;;;;;;;5.37;1.00;;;;;;;15.23;89.26;100402.97;5054163;28;20517;-70
2023/08/08 05:47:09;;;;;;;6.20;1.33;;;;;;;15.23;89.25;100398.31;5054479;28;20525;-70
2023/08/08 05:49:36;;;;;;;5.17;1.23;;;;;;;15.22;89.01;100404.91;5054493;28;20437;-70
2023/08/08 05:52:03;;;;;;;4.73;1.13;;;;;;;15.10;89.70;100400.22;5054970;28;20470;-71
2023/08/08 05:54:30;;;;;;;5.90;1.80;;;;;;;15.16;90.08;100406.25;5054613;28;20597;-70
2023/08/08 05:56:56;;;;;;;9.37;1.73;;;;;;;15.24;89.81;100415.50;5054272;28;20446;-71
2023/08/08 05:59:24;;;;;;;5.47;1.50;;;;;;;15.28;88.73;100410.97;5054120;28;20540;-70
2023/08/08 06:01:51;;;;;;;12.27;1.70;;;;;;;15.30;88.68;100408.69;5054171;28;20439;-70
2023/08/08 06:04:18;;;;;;;12.70;1.83;;;;;;;15.34;89.37;100417.78;5054187;28;20508;-70
2023/08/08 06:06:44;;;;;;;6.73;1.40;;;;;;;15.38;89.04;100411.31;5054148;28;20489;-70
2023/08/08 06:09:12;;;;;;;8.70;1.37;;;;;;;15.43;89.25;100396.66;5054081;28;20817;-71
2023/08/08 06:11:38;;;;;;;5.97;1.50;;;;;;;15.50;89.14;100415.22;5053713;28;20458;-69
2023/08/08 06:14:05;;;;;;;5.70;1.40;;;;;;;15.57;88.31;100408.03;5054352;28;20878;-69
2023/08/08 06:16:33;;;;;;;5.90;1.50;;;;;;;15.64;90.32;100396.63;5054147;28;20458;-69
2023/08/08 06:18:59;;;;;;;5.63;1.13;;;;;;;15.80;88.44;100410.38;5053867;28;20488;-70
2023/08/08 06:21:26;;;;;;;9.23;1.33;;;;;;;16.01;87.28;100404.81;5053900;28;20482;-69
2023/08/08 06:23:54;;;;;;;5.40;1.27;;;;;;;16.12;87.13;100392.31;5053537;28;21005;-70
2023/08/08 06:26:21;;;;;;;7.67;1.50;;;;;;;16.13;85.96;100402.09;5053994;28;20462;-70
2023/08/08 06:28:48;;;;;;;6.30;1.50;;;;;;;16.15;86.35;100394.31;5053878;28;20442;-70
2023/08/08 06:31:15;;;;;;;5.20;1.43;;;;;;;16.09;86.95;100406.63;5053685;28;20438;-69
2023/08/08 06:33:43;;;;;;;9.80;1.83;;;;;;;16.08;86.04;100410.53;5053382;28;20843;-69
2023/08/08 06:36:09;;;;;;;5.13;1.20;;;;;;;16.07;86.73;100417.94;5053895;28;20904;-67
2023/08/08 06:38:36;;;;;;;6.93;1.70;;;;;;;16.05;86.34;100412.00;5053558;28;20438;-67
2023/08/08 06:41:03;;;;;;;5.27;1.17;;;;;;;16.01;87.24;100418.47;5053453;28;20487;-70
2023/08/08 06:43:30;;;;;;;6.43;1.50;;;;;;;15.95;86.14;100414.38;5053576;28;20473;-72
2023/08/08 06:45:57;;;;;;;5.80;1.03;;;;;;;15.94;87.87;100413.59;5054301;28;20545;-69
2023/08/08 06:48:25;;;;;;;5.20;1.40;;;;;;;15.91;87.66;100416.22;5053894;28;20530;-69
2023/08/08 06:50:53;;;;;;;5.33;1.30;;;;;;;15.96;88.39;100407.78;5053486;28;20526;-70
2023/08/08 06:53:20;;;;;;;6.10;1.20;;;;;;;16.07;86.41;100415.19;5053077;28;20529;-69
2023/08/08 06:55:47;;;;;;;5.07;1.00;;;;;;;16.19;86.71;100410.84;5053132;28;20520;-69
2023/08/08 06:58:13;;;;;;;10.70;2.10;;;;;;;16.25;86.79;100410.28;5053340;28;20431;-70
2023/08/08 07:00:40;;;;;;;5.23;1.30;;;;;;;16.29;87.80;100407.63;5053280;28;20486;-69
2023/08/08 07:03:07;;;;;;;5.97;1.20;;;;;;;16.46;85.99;100410.13;5053397;28;20445;-69
2023/08/08 07:05:33;;;;;;;5.60;1.00;;;;;;;16.52;85.23;100421.63;5053025;28;20966;-69
2023/08/08 07:08:01;;;;;;;5.40;1.23;;;;;;;16.50;84.95;100412.97;5053927;28;20434;-70
2023/08/08 07:10:29;;;;;;;4.97;1.00;;;;;;;16.54;85.79;100411.94;5053074;28;20442;-69
2023/08/08 07:12:56;;;;;;;5.00;1.10;;;;;;;16.56;84.87;100403.41;5053374;28;20411;-69
2023/08/08 07:15:22;;;;;;;5.63;1.20;;;;;;;16.63;84.36;100412.59;5053152;28;20501;-69
2023/08/08 07:17:49;;;;;;;5.97;1.57;;;;;;;16.59;84.51;100406.22;5052855;28;20926;-70
2023/08/08 07:20:17;;;;;;;4.87;1.10;;;;;;;16.68;84.45;100411.53;5053195;28;20488;-69
2023/08/08 07:22:44;;;;;;;6.90;1.70;;;;;;;16.75;84.85;100403.59;5053299;28;20535;-69
2023/08/08 07:25:12;;;;;;;6.20;1.83;;;;;;;16.76;82.77;100407.13;5053339;28;20457;-69
2023/08/08 07:27:39;;;;;;;5.10;1.40;;;;;;;16.75;82.81;100406.31;5053145;28;20465;-69
2023/08/08 07:30:07;;;;;;;8.70;1.13;;;;;;;16.80;83.32;100414.28;5053133;28;20444;-69
2023/08/08 07:32:34;;;;;;;5.47;1.40;;;;;;;16.88;84.04;100416.06;5054518;28;20799;-69
2023/08/08 07:35:02;;;;;;;5.30;1.20;;;;;;;17.01;81.80;100413.31;5056956;28;20464;-70
2023/08/08 07:37:29;;;;;;;11.03;1.60;;;;;;;17.03;81.43;100408.25;5056886;28;20496;-70
2023/08/08 07:39:56;;;;;;;6.33;1.40;;;;;;;17.09;81.10;100415.09;5056978;28;20580;-70
2023/08/08 07:42:24;;;;;;;5.97;1.23;;;;;;;17.12;81.99;100404.22;5056914;28;20445;-69
2023/08/08 07:44:50;;;;;;;7.17;1.53;;;;;;;17.15;81.94;100424.63;5056768;28;20870;-69
2023/08/08 07:47:17;;;;;;;7.30;1.83;;;;;;;17.12;81.21;100414.38;5056803;28;20513;-69
2023/08/08 07:49:44;;;;;;;4.83;1.00;;;;;;;17.11;81.13;100408.13;5056732;28;20444;-68
2023/08/08 07:52:10;;;;;;;5.77;1.20;;;;;;;17.12;81.51;100403.44;5057321;28;20462;-68
2023/08/08 07:54:37;;;;;;;6.30;1.10;;;;;;;17.12;83.25;100406.16;5056593;28;20511;-68
2023/08/08 07:57:05;;;;;;;5.60;1.47;;;;;;;17.26;83.78;100403.81;5056244;28;20946;-68
2023/08/08 07:59:33;;;;;;;6.00;1.50;;;;;;;17.42;82.23;100397.56;5056495;28;20441;-68
2023/08/08 08:01:59;;;;;;;5.50;1.40;;;;;;;17.58;81.33;100401.94;5056101;28;20564;-68
2023/08/08 08:04:26;;;;;;;5.30;1.23;;;;;;;17.79;77.91;100415.38;5056465;28;20528;-71
2023/08/08 08:06:52;;;;;;;7.63;1.50;;;;;;;17.86;78.48;100407.34;5056016;28;20460;-70
2023/08/08 08:09:19;;;;;;;8.60;1.83;;;;;;;17.96;78.34;100407.94;5056315;28;20446;-70
2023/08/08 08:11:46;;;;;;;5.30;1.10;;;;;;;17.99;78.28;100407.25;5058748;22;20597;-67
2023/08/08 08:14:12;;;;;;;6.20;1.27;;;;;;;18.07;77.91;100414.50;5036400;28;20523;-72
2023/08/08 08:16:40;;;;;;;24.47;1.53;;;;;;;18.12;77.97;100411.47;5035905;28;20970;-67
2023/08/08 08:19:07;;;;;;;8.90;1.53;;;;;;;18.13;76.68;100408.38;5035944;28;20888;-67
2023/08/08 08:21:34;;;;;;;5.37;1.20;;;;;;;18.17;76.21;100413.16;5036637;28;20486;-68
2023/08/08 08:24:01;;;;;;;5.80;1.43;;;;;;;18.28;74.33;100401.28;5036258;28;20445;-67
2023/08/08 08:26:27;;;;;;;5.60;1.60;;;;;;;18.36;75.54;100413.97;5036335;28;20459;-67
2023/08/08 08:28:54;;;;;;;4.73;1.00;;;;;;;18.28;75.04;100404.03;5036132;28;20951;-67
2023/08/08 08:31:21;;;;;;;5.20;1.27;;;;;;;18.29;73.88;100416.56;5035701;28;20441;-67
2023/08/08 08:33:49;;;;;;;4.90;0.80;;;;;;;18.18;73.50;100412.00;5035948;28;20497;-67
2023/08/08 08:36:15;;;;;;;4.90;1.20;;;;;;;18.19;73.86;100411.63;5035976;28;20880;-67
2023/08/08 08:38:42;;;;;;;4.90;1.10;;;;;;;18.10;76.27;100414.56;5035903;28;20860;-67
2023/08/08 08:41:13;;;;;;;17.30;1.50;;;;;;;18.00;76.59;100409.63;5035760;28;20530;-67
2023/08/08 08:43:40;;;;;;;4.80;1.07;;;;;;;18.05;78.07;100400.34;5035953;28;20435;-67
2023/08/08 08:46:10;;;;;;;6.50;1.50;;;;;;;18.21;76.38;100397.56;5035919;28;20465;-68
2023/08/08 08:48:37;;;;;;;6.30;1.40;;;;;;;18.27;75.94;100412.59;5035378;28;20804;-67
2023/08/08 08:51:05;;;;;;;4.67;1.07;;;;;;;18.32;76.58;100404.06;5035658;28;20525;-68
2023/08/08 08:53:38;;;;;;;4.80;1.10;;;;;;;18.48;75.51;100406.78;5035599;28;20439;-67
2023/08/08 08:56:05;;;;;;;5.30;1.30;;;;;;;18.56;73.65;100408.53;5035723;28;20514;-67
2023/08/08 08:58:31;;;;;;;5.60;1.43;;;;;;;18.57;73.62;100399.16;5035590;28;20522;-67
2023/08/08 09:00:59;;;;;;;5.57;1.43;;;;;;;18.66;76.38;100395.03;5035654;28;20483;-67
2023/08/08 09:03:26;;;;;;;5.00;1.03;;;;;;;18.62;74.20;100405.13;5035349;28;20443;-68
2023/08/08 09:05:55;;;;;;;5.20;1.10;;;;;;;18.60;75.36;100399.22;5035327;28;20481;-68
2023/08/08 09:08:23;;;;;;;6.73;1.50;;;;;;;18.77;73.80;100387.06;5034969;28;20531;-68
2023/08/08 09:10:50;;;;;;;4.90;1.03;;;;;;;18.78;72.33;100387.84;5035211;28;20879;-68
2023/08/08 09:13:17;;;;;;;5.67;1.40;;;;;;;18.74;71.38;100392.47;5035293;28;20973;-68
2023/08/08 09:15:43;;;;;;;5.40;1.10;;;;;;;18.63;70.71;100392.22;5035320;28;20474;-68
2023/08/08 09:18:10;;;;;;;5.50;1.40;;;;;;;18.49;70.93;100389.97;5035011;28;20473;-68
2023/08/08 09:20:37;;;;;;;5.77;1.50;;;;;;;18.45;72.73;100391.03;5035059;28;20574;-68
2023/08/08 09:23:03;;;;;;;5.30;1.40;;;;;;;18.43;71.57;100387.88;5035055;28;20518;-67
2023/08/08 09:25:32;;;;;;;6.03;1.20;;;;;;;18.46;70.77;100381.66;5034872;28;20895;-68
2023/08/08 09:27:58;;;;;;;6.17;1.40;;;;;;;18.56;69.56;100381.09;5034994;28;20450;-67
2023/08/08 09:30:26;;;;;;;10.00;1.27;;;;;;;18.69;68.80;100371.63;5035054;28;21002;-68
2023/08/08 09:32:53;;;;;;;5.43;1.03;;;;;;;18.82;69.63;100375.00;5035322;28;20436;-68
2023/08/08 09:35:20;;;;;;;5.87;1.50;;;;;;;18.96;70.79;100372.53;5034804;28;20874;-68
2023/08/08 09:37:46;;;;;;;5.10;1.00;;;;;;;19.05;68.11;100366.81;5034909;28;20534;-68
2023/08/08 09:40:13;;;;;;;4.60;0.90;;;;;;;19.10;68.44;100367.31;5034866;28;20445;-68
2023/08/08 09:42:42;;;;;;;5.10;1.33;;;;;;;18.89;69.81;100373.19;5034900;28;20525;-67
2023/08/08 09:45:10;;;;;;;15.63;1.80;;;;;;;18.21;76.30;100383.88;5034433;28;20542;-67
2023/08/08 09:47:36;;;;;;;5.97;1.37;;;;;;;17.69;84.06;100379.47;5034596;28;20516;-67
2023/08/08 09:50:05;;;;;;;5.90;1.57;;;;;;;17.14;90.45;100376.53;5034454;28;20439;-68
2023/08/08 09:52:33;;;;;;;9.10;2.07;;;;;;;16.90;91.40;100371.94;5034129;28;20534;-67
2023/08/08 09:55:00;;;;;;;5.67;1.40;;;;;;;16.61;92.57;100367.59;5033861;28;20538;-67
2023/08/08 09:57:27;;;;;;;6.53;2.00;;;;;;;16.57;95.24;100369.44;5034365;28;20569;-68
2023/08/08 09:59:56;;;;;;;5.33;1.57;;;;;;;16.60;96.28;100363.25;5034389;28;20530;-68
2023/08/08 10:02:23;;;;;;;5.40;1.50;;;;;;;16.71;91.69;100366.31;5033927;28;21081;-68
2023/08/08 10:04:50;;;;;;;6.27;1.77;;;;;;;16.71;95.31;100361.63;5034486;28;20466;-68
2023/08/08 10:07:16;;;;;;;5.93;1.70;;;;;;;16.76;94.05;100361.41;5034388;28;20466;-68
2023/08/08 10:09:43;;;;;;;5.60;1.60;;;;;;;16.75;88.16;100362.56;5034184;28;20955;-68
2023/08/08 10:12:12;;;;;;;6.03;1.57;;;;;;;16.78;86.80;100361.88;5033969;28;20542;-68
2023/08/08 10:14:39;;;;;;;5.80;1.67;;;;;;;16.90;86.43;100350.84;5033939;28;20483;-68
2023/08/08 10:17:07;;;;;;;8.20;1.60;;;;;;;17.09;86.38;100354.88;5033998;28;20451;-70
2023/08/08 10:19:35;;;;;;;6.33;1.70;;;;;;;17.29;84.03;100351.09;5034039;28;20482;-69
2023/08/08 10:22:05;;;;;;;6.70;1.40;;;;;;;17.59;83.20;100340.50;5033645;28;20924;-69
2023/08/08 10:24:35;;;;;;;4.83;1.33;;;;;;;17.92;79.69;100344.03;5033822;28;20466;-69
2023/08/08 10:27:04;;;;;;;5.93;1.70;;;;;;;18.19;76.76;100342.28;5034112;28;20439;-67
2023/08/08 10:29:32;;;;;;;6.33;2.07;;;;;;;18.33;74.03;100335.19;5033826;28;20497;-67
2023/08/08 10:32:00;;;;;;;7.03;1.50;;;;;;;18.23;78.57;100365.88;5033952;28;20526;-66
2023/08/08 10:34:39;;;;;;;5.10;1.13;;;;;;;17.01;90.97;100375.00;5033825;28;20530;-67
2023/08/08 10:37:06;;;;;;;5.03;1.30;;;;;;;16.28;95.90;100354.91;5033804;28;20424;-69
2023/08/08 10:39:33;;;;;;;5.50;1.20;;;;;;;15.78;99.62;100368.97;5033585;28;20845;-71
2023/08/08 10:42:04;;;;;;;6.30;1.43;;;;;;;15.55;100.00;100357.66;5033568;28;20982;-70
2023/08/08 10:44:30;;;;;;;7.47;1.47;;;;;;;15.53;100.00;100354.47;5033641;28;20439;-69
2023/08/08 10:46:57;;;;;;;11.60;1.53;;;;;;;15.69;100.00;100349.97;5033603;28;20529;-70
2023/08/08 10:49:24;;;;;;;5.20;1.40;;;;;;;16.01;100.00;100344.72;5033601;28;20447;-69
2023/08/08 10:51:52;;;;;;;6.67;1.97;;;;;;;16.38;100.00;100348.97;5033532;28;20435;-69
2023/08/08 10:54:21;;;;;;;6.43;1.90;;;;;;;16.77;96.08;100343.84;5033438;28;20445;-68
2023/08/08 10:56:52;;;;;;;5.60;1.80;;;;;;;16.88;92.25;100344.16;5033404;28;20502;-68
2023/08/08 10:59:22;;;;;;;5.00;1.33;;;;;;;16.95;90.36;100346.28;5033896;28;20474;-68
2023/08/08 11:01:51;;;;;;;6.27;1.80;;;;;;;17.05;89.47;100343.84;5033404;28;20522;-68
2023/08/08 11:04:19;;;;;;;6.07;1.83;;;;;;;17.21;86.42;100335.63;5033335;28;20476;-68
2023/08/08 11:06:46;;;;;;;5.43;1.23;;;;;;;17.53;89.09;100327.41;5033040;28;21045;-69
2023/08/08 11:09:15;;;;;;;7.70;1.63;;;;;;;17.88;84.03;100325.59;5037748;28;20515;-71
2023/08/08 11:11:44;;;;;;;5.73;1.30;;;;;;;18.11;77.68;100327.66;5037108;28;20509;-71
2023/08/08 11:14:12;;;;;;;8.07;2.00;;;;;;;18.13;81.16;100328.06;5037139;28;20935;-71
2023/08/08 11:16:39;;;;;;;5.00;1.27;;;;;;;18.07;77.47;100345.97;5037728;28;20470;-70
2023/08/08 11:19:06;;;;;;;7.13;1.23;;;;;;;18.05;77.36;100351.00;5037365;28;20435;-70
2023/08/08 11:21:35;;;;;;;4.90;1.20;;;;;;;18.03;71.28;100356.06;5037197;28;20537;-69
2023/08/08 11:24:03;;;;;;;4.57;0.80;;;;;;;18.22;72.52;100358.03;5037586;28;20528;-69